Time,TemperatureF,DewpointF,PressureIn,WindDirection,WindDirectionDegrees,WindSpeedMPH,WindSpeedGustMPH,Humidity,HourlyPrecipIn,Conditions,Clouds,dailyrainin,SoftwareType,DateUTC
2013-01-18 00:13:00,38.1,16.0,30.34,SSE,147,6.0,-999.0,41,-99.99,,,0.00,weatherlink.com 1.10,2013-01-18 08:13:00,
2013-01-18 00:28:00,38.4,16.0,30.34,ESE,113,3.0,-999.0,40,-99.99,,,0.00,weatherlink.com 1.10,2013-01-18 08:28:00,
2013-01-18 00:43:00,38.6,15.0,30.33,SE,135,0.0,-999.0,38,-99.99,,,0.00,weatherlink.com 1.10,2013-01-18 08:43:00,
2013-01-18 00:58:00,39.1,15.0,30.33,SSW,195,2.0,-999.0,37,-99.99,,,0.00,weatherlink.com 1.10,2013-01-18 08:58:00,
2013-01-18 01:13:00,38.9,15.0,30.32,SSE,159,4.0,-999.0,38,-99.99,,,0.00,weatherlink.com 1.10,2013-01-18 09:13:00,
2013-01-18 01:28:00,39.2,15.0,30.32,SE,130,3.0,-999.0,37,-99.99,,,0.00,weatherlink.com 1.10,2013-01-18 09:28:00,
2013-01-18 01:43:00,39.8,15.0,30.32,SE,133,5.0,-999.0,37,-99.99,,,0.00,weatherlink.com 1.10,2013-01-18 09:43:00,
2013-01-18 01:58:00,39.8,15.0,30.32,SE,146,3.0,-999.0,37,-99.99,,,0.00,weatherlink.com 1.10,2013-01-18 09:58:00,
2013-01-18 02:13:00,39.1,15.0,30.32,SSE,150,4.0,-999.0,37,-99.99,,,0.00,weatherlink.com 1.10,2013-01-18 10:13:00,
2013-01-18 02:28:00,39.3,15.0,30.32,South,170,2.0,-999.0,37,-99.99,,,0.00,weatherlink.com 1.10,2013-01-18 10:28:00,
2013-01-18 02:43:00,39.3,14.0,30.32,SSW,200,2.0,-999.0,36,-99.99,,,0.00,weatherlink.com 1.10,2013-01-18 10:43:00,
2013-01-18 02:58:00,38.9,14.0,30.32,SSE,159,3.0,-999.0,37,-99.99,,,0.00,weatherlink.com 1.10,2013-01-18 10:58:00,
2013-01-18 03:13:00,39.2,14.0,30.32,SE,145,3.0,-999.0,36,-99.99,,,0.00,weatherlink.com 1.10,2013-01-18 11:13:00,
2013-01-18 03:28:00,39.8,15.0,30.31,SE,133,3.0,-999.0,36,-99.99,,,0.00,weatherlink.com 1.10,2013-01-18 11:28:00,
2013-01-18 03:43:00,40.7,14.0,30.31,SSW,204,4.0,-999.0,33,-99.99,,,0.00,weatherlink.com 1.10,2013-01-18 11:43:00,
2013-01-18 03:58:00,41.2,13.0,30.31,South,176,4.0,-999.0,31,-99.99,,,0.00,weatherlink.com 1.10,2013-01-18 11:58:00,
2013-01-18 04:15:00,40.1,14.0,30.30,SSE,165,8.0,-999.0,34,-99.99,,,0.00,weatherlink.com 1.10,2013-01-18 12:15:00,
2013-01-18 04:28:00,40.4,13.0,30.30,South,184,6.0,-999.0,32,-99.99,,,0.00,weatherlink.com 1.10,2013-01-18 12:28:00,
2013-01-18 04:43:00,40.1,14.0,30.30,SSE,167,6.0,-999.0,34,-99.99,,,0.00,weatherlink.com 1.10,2013-01-18 12:43:00,
2013-01-18 04:58:00,40.0,14.0,30.30,SE,145,6.0,-999.0,35,-99.99,,,0.00,weatherlink.com 1.10,2013-01-18 12:58:00,
2013-01-18 05:13:00,40.1,15.0,30.29,ESE,120,4.0,-999.0,36,-99.99,,,0.00,weatherlink.com 1.10,2013-01-18 13:13:00,
2013-01-18 05:28:00,40.7,14.0,30.29,ESE,120,4.0,-999.0,34,-99.99,,,0.00,weatherlink.com 1.10,2013-01-18 13:28:00,
2013-01-18 05:43:00,40.5,14.0,30.29,ESE,120,8.0,-999.0,34,-99.99,,,0.00,weatherlink.com 1.10,2013-01-18 13:43:00,
2013-01-18 05:58:00,40.3,15.0,30.29,ESE,120,4.0,-999.0,35,-99.99,,,0.00,weatherlink.com 1.10,2013-01-18 13:58:00,
2013-01-18 06:13:00,40.1,14.0,30.29,SE,129,4.0,-999.0,34,-99.99,,,0.00,weatherlink.com 1.10,2013-01-18 14:13:00,
2013-01-18 06:28:00,40.5,13.0,30.29,ESE,107,7.0,-999.0,33,-99.99,,,0.00,weatherlink.com 1.10,2013-01-18 14:28:00,
2013-01-18 06:43:00,39.2,14.0,30.29,ESE,113,5.0,-999.0,36,-99.99,,,0.00,weatherlink.com 1.10,2013-01-18 14:43:00,
2013-01-18 06:58:00,38.8,15.0,30.28,SE,143,7.0,-999.0,38,-99.99,,,0.00,weatherlink.com 1.10,2013-01-18 14:58:00,
2013-01-18 07:13:00,38.6,14.0,30.28,SE,139,7.0,-999.0,37,-99.99,,,0.00,weatherlink.com 1.10,2013-01-18 15:13:00,
2013-01-18 07:28:00,38.5,14.0,30.29,ESE,114,9.0,-999.0,37,-99.99,,,0.00,weatherlink.com 1.10,2013-01-18 15:28:00,
2013-01-18 07:43:00,38.9,14.0,30.29,ESE,119,6.0,-999.0,36,-99.99,,,0.00,weatherlink.com 1.10,2013-01-18 15:43:00,
2013-01-18 07:58:00,38.4,15.0,30.30,SSE,148,10.0,-999.0,38,-99.99,,,0.00,weatherlink.com 1.10,2013-01-18 15:58:00,
2013-01-18 08:13:00,38.9,15.0,30.30,SE,146,6.0,-999.0,38,-99.99,,,0.00,weatherlink.com 1.10,2013-01-18 16:13:00,
2013-01-18 08:28:00,40.8,14.0,30.31,SE,134,8.0,-999.0,34,-99.99,,,0.00,weatherlink.com 1.10,2013-01-18 16:28:00,
2013-01-18 08:43:00,41.7,15.0,30.31,SE,146,9.0,-999.0,34,-99.99,,,0.00,weatherlink.com 1.10,2013-01-18 16:43:00,
2013-01-18 08:58:00,41.2,15.0,30.32,SE,135,11.0,-999.0,34,-99.99,,,0.00,weatherlink.com 1.10,2013-01-18 16:58:00,
2013-01-18 09:13:00,41.4,15.0,30.32,SSE,156,10.0,-999.0,35,-99.99,,,0.00,weatherlink.com 1.10,2013-01-18 17:13:00,
2013-01-18 09:28:00,41.7,16.0,30.33,SE,146,10.0,-999.0,35,-99.99,,,0.00,weatherlink.com 1.10,2013-01-18 17:28:00,
2013-01-18 09:58:00,43.5,17.0,30.33,SSE,155,12.0,-999.0,34,-99.99,,,0.00,weatherlink.com 1.10,2013-01-18 17:58:00,
2013-01-18 10:13:00,43.5,17.0,30.33,South,169,10.0,-999.0,35,-99.99,,,0.00,weatherlink.com 1.10,2013-01-18 18:13:00,
2013-01-18 10:28:00,43.9,18.0,30.33,SSE,155,12.0,-999.0,35,-99.99,,,0.00,weatherlink.com 1.10,2013-01-18 18:28:00,
2013-01-18 10:43:00,44.2,19.0,30.33,SSW,201,9.0,-999.0,36,-99.99,,,0.00,weatherlink.com 1.10,2013-01-18 18:43:00,
2013-01-18 10:58:00,44.3,19.0,30.32,SSE,152,9.0,-999.0,36,-99.99,,,0.00,weatherlink.com 1.10,2013-01-18 18:58:00,
2013-01-18 11:13:00,46.0,20.0,30.32,SSE,150,16.0,-999.0,35,-99.99,,,0.00,weatherlink.com 1.10,2013-01-18 19:13:00,
2013-01-18 11:28:00,46.3,20.0,30.31,SE,136,8.0,-999.0,35,-99.99,,,0.00,weatherlink.com 1.10,2013-01-18 19:28:00,
2013-01-18 11:43:00,46.3,20.0,30.31,South,169,9.0,-999.0,35,-99.99,,,0.00,weatherlink.com 1.10,2013-01-18 19:43:00,
2013-01-18 11:58:00,46.4,21.0,30.31,SSE,162,12.0,-999.0,36,-99.99,,,0.00,weatherlink.com 1.10,2013-01-18 19:58:00,
2013-01-18 12:14:00,47.2,21.0,30.30,South,172,7.0,-999.0,35,-99.99,,,0.00,weatherlink.com 1.10,2013-01-18 20:14:00,
2013-01-18 12:28:00,47.5,20.0,30.30,SSE,159,9.0,-999.0,34,-99.99,,,0.00,weatherlink.com 1.10,2013-01-18 20:28:00,
2013-01-18 12:43:00,48.3,22.0,30.30,SE,145,6.0,-999.0,36,-99.99,,,0.00,weatherlink.com 1.10,2013-01-18 20:43:00,
2013-01-18 12:58:00,49.0,22.0,30.29,SSE,157,5.0,-999.0,34,-99.99,,,0.00,weatherlink.com 1.10,2013-01-18 20:58:00,
2013-01-18 13:13:00,49.2,21.0,30.29,South,170,8.0,-999.0,33,-99.99,,,0.00,weatherlink.com 1.10,2013-01-18 21:13:00,
2013-01-18 13:28:00,49.2,22.0,30.28,SE,144,7.0,-999.0,34,-99.99,,,0.00,weatherlink.com 1.10,2013-01-18 21:28:00,
2013-01-18 13:43:00,49.5,22.0,30.28,SSE,165,7.0,-999.0,34,-99.99,,,0.00,weatherlink.com 1.10,2013-01-18 21:43:00,
2013-01-18 13:58:00,49.6,22.0,30.28,South,178,5.0,-999.0,34,-99.99,,,0.00,weatherlink.com 1.10,2013-01-18 21:58:00,
2013-01-18 14:13:00,49.9,22.0,30.28,SSE,150,5.0,-999.0,34,-99.99,,,0.00,weatherlink.com 1.10,2013-01-18 22:13:00,
2013-01-18 14:28:00,50.2,23.0,30.28,SSW,200,7.0,-999.0,34,-99.99,,,0.00,weatherlink.com 1.10,2013-01-18 22:28:00,
2013-01-18 14:43:00,50.3,23.0,30.29,SSE,167,7.0,-999.0,34,-99.99,,,0.00,weatherlink.com 1.10,2013-01-18 22:43:00,
2013-01-18 14:58:00,49.8,22.0,30.29,SSE,157,10.0,-999.0,34,-99.99,,,0.00,weatherlink.com 1.10,2013-01-18 22:58:00,
2013-01-18 15:13:00,49.2,22.0,30.29,SSE,148,7.0,-999.0,35,-99.99,,,0.00,weatherlink.com 1.10,2013-01-18 23:13:00,
2013-01-18 15:28:00,48.2,22.0,30.29,SSE,153,5.0,-999.0,36,-99.99,,,0.00,weatherlink.com 1.10,2013-01-18 23:28:00,
2013-01-18 15:43:00,48.3,22.0,30.29,SE,145,6.0,-999.0,36,-99.99,,,0.00,weatherlink.com 1.10,2013-01-18 23:43:00,
2013-01-18 15:58:00,47.5,22.0,30.29,SE,126,4.0,-999.0,36,-99.99,,,0.00,weatherlink.com 1.10,2013-01-18 23:58:00,
2013-01-18 16:13:00,45.1,23.0,30.29,East,101,2.0,-999.0,42,-99.99,,,0.00,weatherlink.com 1.10,2013-01-19 00:13:00,
2013-01-18 16:28:00,43.5,23.0,30.29,ESE,117,4.0,-999.0,45,-99.99,,,0.00,weatherlink.com 1.10,2013-01-19 00:28:00,
2013-01-18 16:43:00,45.0,22.0,30.29,SE,124,6.0,-999.0,40,-99.99,,,0.00,weatherlink.com 1.10,2013-01-19 00:43:00,
2013-01-18 16:58:00,44.4,22.0,30.29,SE,138,4.0,-999.0,41,-99.99,,,0.00,weatherlink.com 1.10,2013-01-19 00:58:00,
2013-01-18 17:13:00,44.3,19.0,30.29,SE,143,5.0,-999.0,37,-99.99,,,0.00,weatherlink.com 1.10,2013-01-19 01:13:00,
2013-01-18 17:28:00,43.7,21.0,30.29,ESE,123,6.0,-999.0,40,-99.99,,,0.00,weatherlink.com 1.10,2013-01-19 01:28:00,
2013-01-18 17:43:00,43.4,19.0,30.29,SE,135,5.0,-999.0,38,-99.99,,,0.00,weatherlink.com 1.10,2013-01-19 01:43:00,
2013-01-18 17:58:00,39.2,19.0,30.29,SE,125,3.0,-999.0,44,-99.99,,,0.00,weatherlink.com 1.10,2013-01-19 01:58:00,
2013-01-18 18:13:00,38.7,19.0,30.29,ESE,114,5.0,-999.0,46,-99.99,,,0.00,weatherlink.com 1.10,2013-01-19 02:13:00,
2013-01-18 18:28:00,38.3,20.0,30.29,ESE,113,4.0,-999.0,47,-99.99,,,0.00,weatherlink.com 1.10,2013-01-19 02:28:00,
2013-01-18 18:58:00,36.9,20.0,30.29,ESE,113,2.0,-999.0,51,-99.99,,,0.00,weatherlink.com 1.10,2013-01-19 02:58:00,
2013-01-18 19:13:00,35.7,20.0,30.29,ESE,122,3.0,-999.0,53,-99.99,,,0.00,weatherlink.com 1.10,2013-01-19 03:13:00,
2013-01-18 19:28:00,37.4,20.0,30.29,East,95,3.0,-999.0,50,-99.99,,,0.00,weatherlink.com 1.10,2013-01-19 03:28:00,
2013-01-18 19:44:00,40.3,19.0,30.29,ESE,113,5.0,-999.0,42,-99.99,,,0.00,weatherlink.com 1.10,2013-01-19 03:44:00,
2013-01-18 19:58:00,41.1,19.0,30.29,ESE,108,3.0,-999.0,42,-99.99,,,0.00,weatherlink.com 1.10,2013-01-19 03:58:00,
2013-01-18 20:13:00,39.9,18.0,30.30,East,94,3.0,-999.0,41,-99.99,,,0.00,weatherlink.com 1.10,2013-01-19 04:13:00,
2013-01-18 20:28:00,41.6,18.0,30.30,ESE,112,5.0,-999.0,39,-99.99,,,0.00,weatherlink.com 1.10,2013-01-19 04:28:00,
2013-01-18 20:43:00,41.6,18.0,30.30,ESE,105,2.0,-999.0,39,-99.99,,,0.00,weatherlink.com 1.10,2013-01-19 04:43:00,
2013-01-18 20:58:00,39.5,18.0,30.30,SE,128,4.0,-999.0,42,-99.99,,,0.00,weatherlink.com 1.10,2013-01-19 04:58:00,
2013-01-18 21:13:00,41.4,17.0,30.31,SSE,160,3.0,-999.0,37,-99.99,,,0.00,weatherlink.com 1.10,2013-01-19 05:13:00,
2013-01-18 21:28:00,42.9,17.0,30.31,East,98,5.0,-999.0,35,-99.99,,,0.00,weatherlink.com 1.10,2013-01-19 05:28:00,
2013-01-18 21:43:00,41.9,17.0,30.31,SE,136,2.0,-999.0,36,-99.99,,,0.00,weatherlink.com 1.10,2013-01-19 05:43:00,
2013-01-18 21:58:00,40.3,18.0,30.31,SE,144,4.0,-999.0,40,-99.99,,,0.00,weatherlink.com 1.10,2013-01-19 05:58:00,
2013-01-18 22:13:00,41.6,16.0,30.31,SE,142,3.0,-999.0,36,-99.99,,,0.00,weatherlink.com 1.10,2013-01-19 06:13:00,
2013-01-18 22:28:00,40.8,16.0,30.31,East,80,4.0,-999.0,37,-99.99,,,0.00,weatherlink.com 1.10,2013-01-19 06:28:00,
2013-01-18 22:43:00,41.3,15.0,30.31,ESE,123,6.0,-999.0,35,-99.99,,,0.00,weatherlink.com 1.10,2013-01-19 06:43:00,
2013-01-18 22:58:00,42.3,16.0,30.31,ESE,117,5.0,-999.0,34,-99.99,,,0.00,weatherlink.com 1.10,2013-01-19 06:58:00,
2013-01-18 23:13:00,42.6,15.0,30.31,ESE,119,2.0,-999.0,33,-99.99,,,0.00,weatherlink.com 1.10,2013-01-19 07:13:00,
2013-01-18 23:28:00,43.6,15.0,30.31,SE,143,4.0,-999.0,31,-99.99,,,0.00,weatherlink.com 1.10,2013-01-19 07:28:00,
2013-01-18 23:43:00,44.6,15.0,30.31,ESE,112,4.0,-999.0,30,-99.99,,,0.00,weatherlink.com 1.10,2013-01-19 07:43:00,
2013-01-18 23:58:00,44.4,15.0,30.30,SE,131,6.0,-999.0,30,-99.99,,,0.00,weatherlink.com 1.10,2013-01-19 07:58:00,